Time;durP1;ratioP1;P1;durP2;ratioP2;P2;SDS_P1;SDS_P2;PMS_P1;PMS_P2;Temp;Humidity;BMP_temperature;BMP_pressure;BME280_temperature;BME280_humidity;BME280_pressure;Samples;Min_cycle;Max_cycle;Signal;HPM_P1;HPM_P2
2022/05/25 00:01:33;;;;;;;4.95;2.70;;;5.70;78.00;;;;;;4993895;28;20044;-79
2022/05/25 00:04:00;;;;;;;6.50;3.15;;;5.70;78.20;;;;;;4993650;28;20034;-80
2022/05/25 00:06:27;;;;;;;3.90;2.70;;;5.60;78.50;;;;;;4994222;28;20030;-84
2022/05/25 00:08:52;;;;;;;5.13;3.38;;;5.60;79.20;;;;;;4997098;28;20276;-84
2022/05/25 00:11:18;;;;;;;8.30;3.20;;;5.60;78.80;;;;;;4996612;28;20102;-86
2022/05/25 00:13:44;;;;;;;4.20;2.90;;;5.60;78.90;;;;;;4996235;28;20026;-83
2022/05/25 00:16:10;;;;;;;4.88;3.70;;;5.60;79.40;;;;;;4995421;28;20022;-82
2022/05/25 00:18:36;;;;;;;7.25;3.53;;;5.60;79.20;;;;;;4994374;28;20027;-83
2022/05/25 00:21:02;;;;;;;5.88;2.58;;;5.60;79.20;;;;;;4977420;28;20403;-82
2022/05/25 00:23:28;;;;;;;4.75;2.90;;;5.50;79.40;;;;;;4996504;28;20045;-79
2022/05/25 00:25:54;;;;;;;5.05;2.53;;;5.60;79.80;;;;;;5003750;28;20062;-81
2022/05/25 00:28:20;;;;;;;9.30;2.87;;;5.50;79.60;;;;;;4993259;28;20030;-81
2022/05/25 00:30:47;;;;;;;4.53;2.65;;;5.50;79.80;;;;;;4975492;28;20117;-79
2022/05/25 00:33:13;;;;;;;4.78;2.78;;;5.50;79.90;;;;;;4975112;28;20053;-81
2022/05/25 00:35:39;;;;;;;5.20;2.90;;;5.50;80.00;;;;;;4993557;28;20101;-82
2022/05/25 00:38:07;;;;;;;5.22;2.65;;;5.50;80.10;;;;;;4993403;28;20058;-82
2022/05/25 00:40:37;;;;;;;;;;;5.50;80.30;;;;;;4998115;28;20053;-82
2022/05/25 00:43:04;;;;;;;3.58;2.35;;;5.40;79.50;;;;;;4994080;28;19906;-82
2022/05/25 00:45:34;;;;;;;2.67;1.95;;;5.40;80.00;;;;;;4977495;28;20170;-78
2022/05/25 00:48:01;;;;;;;3.83;2.15;;;5.40;80.30;;;;;;4994749;28;20038;-79
2022/05/25 00:51:11;;;;;;;3.90;2.40;;;5.40;80.50;;;;;;4999173;28;20384;-77
2022/05/25 00:53:13;;;;;;;4.80;2.60;;;5.30;80.50;;;;;;4997351;28;20528;-81
2022/05/25 00:55:39;;;;;;;5.38;2.40;;;5.30;80.60;;;;;;4997308;28;20150;-79
2022/05/25 00:58:07;;;;;;;3.15;2.45;;;5.30;80.70;;;;;;4982521;28;20070;-81
2022/05/25 01:00:33;;;;;;;4.25;2.60;;;5.30;80.90;;;;;;5000140;28;20384;-81
2022/05/25 01:03:10;;;;;;;4.45;2.50;;;5.30;81.00;;;;;;4997570;28;20034;-81
2022/05/25 01:05:52;;;;;;;3.65;1.90;;;5.30;81.10;;;;;;4997762;28;20026;-81
2022/05/25 01:08:40;;;;;;;3.80;2.35;;;5.30;81.10;;;;;;4996931;28;20093;-82
2022/05/25 01:11:24;;;;;;;4.28;2.58;;;5.30;81.10;;;;;;4998908;28;20392;-83
2022/05/25 01:13:59;;;;;;;2.80;1.83;;;5.30;81.80;;;;;;4997959;28;20484;-84
2022/05/25 01:16:30;;;;;;;3.08;2.20;;;5.30;81.40;;;;;;4980061;28;20034;-81
2022/05/25 01:19:10;;;;;;;5.47;2.08;;;5.30;81.60;;;;;;4996634;28;20095;-82
2022/05/25 01:21:54;;;;;;;5.07;2.40;;;5.30;81.70;;;;;;5001863;28;20027;-79
2022/05/25 01:24:35;;;;;;;3.22;2.50;;;5.30;81.80;;;;;;4993322;28;20030;-83
2022/05/25 01:27:28;;;;;;;2.65;2.22;;;5.30;81.80;;;;;;4999338;28;20039;-78
2022/05/25 01:30:20;;;;;;;4.30;2.83;;;5.30;81.90;;;;;;4979657;28;20072;-82
2022/05/25 01:33:02;;;;;;;6.22;2.85;;;5.30;81.90;;;;;;4996849;28;20113;-83
2022/05/25 01:35:56;;;;;;;5.43;2.60;;;5.40;81.90;;;;;;4981798;28;20113;-79
2022/05/25 01:38:28;;;;;;;4.43;2.70;;;5.40;81.90;;;;;;4994796;28;20042;-83
2022/05/25 01:41:13;;;;;;;5.28;3.20;;;5.40;81.80;;;;;;5009216;28;20022;-83
2022/05/25 01:43:42;;;;;;;5.20;2.50;;;5.50;81.80;;;;;;5017036;28;20023;-83
2022/05/25 01:46:15;;;;;;;3.95;2.83;;;5.50;81.70;;;;;;5006282;28;20058;-86
2022/05/25 01:48:42;;;;;;;5.57;3.22;;;5.50;81.60;;;;;;5003923;28;20113;-83
2022/05/25 01:51:13;;;;;;;4.18;2.78;;;5.60;81.40;;;;;;5017694;28;20053;-82
2022/05/25 01:53:43;;;;;;;4.53;2.55;;;5.60;81.30;;;;;;5016289;28;20476;-83
2022/05/25 01:56:13;;;;;;;4.53;2.45;;;5.70;81.30;;;;;;5001997;28;20395;-86
2022/05/25 01:58:42;;;;;;;8.00;2.78;;;5.70;81.20;;;;;;5020554;28;20087;-81
2022/05/25 02:01:10;;;;;;;3.72;2.83;;;5.70;81.10;;;;;;5016924;28;20018;-83
2022/05/25 02:06:37;;;;;;;5.68;2.83;;;5.80;81.00;;;;;;5018128;28;20076;-80
2022/05/25 02:09:06;;;;;;;5.75;2.97;;;5.80;80.80;;;;;;5017613;28;20113;-82
2022/05/25 02:11:37;;;;;;;8.35;3.35;;;5.80;80.90;;;;;;5001935;28;20029;-84
2022/05/25 02:14:26;;;;;;;4.78;3.50;;;5.90;80.70;;;;;;5018940;28;20033;-87
2022/05/25 02:17:06;;;;;;;4.88;3.35;;;5.90;80.60;;;;;;4998484;28;20057;-83
2022/05/25 02:20:00;;;;;;;7.30;4.63;;;6.00;80.20;;;;;;5015319;28;20049;-80
2022/05/25 02:22:39;;;;;;;5.20;3.35;;;6.00;80.10;;;;;;5015188;28;20022;-85
2022/05/25 02:25:14;;;;;;;4.90;3.63;;;6.00;80.00;;;;;;5015764;28;20014;-79
2022/05/25 02:27:47;;;;;;;5.22;3.83;;;6.00;79.80;;;;;;5014202;28;20034;-78
2022/05/25 02:30:18;;;;;;;7.47;3.42;;;6.10;79.60;;;;;;5014086;28;20056;-79
2022/05/25 02:32:59;;;;;;;5.85;3.58;;;6.10;79.50;;;;;;5014099;28;20053;-78
2022/05/25 02:35:26;;;;;;;6.00;3.97;;;6.10;79.50;;;;;;5014076;28;20022;-80
2022/05/25 02:37:56;;;;;;;5.53;3.70;;;6.20;79.50;;;;;;4996915;28;20048;-78
2022/05/25 02:40:22;;;;;;;6.80;3.88;;;6.30;79.20;;;;;;5024944;28;20084;-81
2022/05/25 02:42:47;;;;;;;5.43;3.72;;;6.30;79.10;;;;;;5033596;28;20053;-78
2022/05/25 02:45:13;;;;;;;4.18;3.00;;;6.40;79.10;;;;;;5033647;28;20471;-78
2022/05/25 02:47:40;;;;;;;6.13;4.28;;;6.40;78.80;;;;;;5017015;28;20488;-78
2022/05/25 02:50:06;;;;;;;6.40;4.22;;;6.50;78.60;;;;;;5003889;28;20022;-78
2022/05/25 02:52:33;;;;;;;5.57;4.50;;;6.70;78.30;;;;;;4993117;28;20030;-76
2022/05/25 02:54:59;;;;;;;6.25;4.50;;;6.90;77.90;;;;;;4981209;28;20093;-79
2022/05/25 02:57:25;;;;;;;9.65;5.22;;;7.00;77.10;;;;;;5014462;28;20034;-80
2022/05/25 02:59:50;;;;;;;5.35;4.78;;;7.00;76.30;;;;;;5013375;28;20022;-79
2022/05/25 03:02:16;;;;;;;7.97;5.85;;;7.10;75.90;;;;;;5013028;28;20611;-79
2022/05/25 03:04:42;;;;;;;9.35;5.97;;;7.10;75.60;;;;;;4993867;28;20076;-81
2022/05/25 03:07:08;;;;;;;10.50;6.82;;;7.10;75.20;;;;;;5012787;28;20399;-78
2022/05/25 03:09:36;;;;;;;8.18;5.95;;;7.10;75.20;;;;;;4995503;28;20026;-80
2022/05/25 03:12:03;;;;;;;6.50;4.75;;;7.10;75.20;;;;;;5013524;28;20045;-79
2022/05/25 03:14:30;;;;;;;10.55;6.53;;;7.20;75.50;;;;;;4994335;28;20027;-80
2022/05/25 03:16:55;;;;;;;9.00;6.47;;;7.30;75.30;;;;;;4995364;28;22474;-80
2022/05/25 03:19:22;;;;;;;10.85;7.72;;;7.20;74.60;;;;;;5004297;28;20026;-81
2022/05/25 03:21:47;;;;;;;10.02;6.18;;;7.20;74.50;;;;;;4993936;28;20026;-79
2022/05/25 03:24:14;;;;;;;9.57;5.60;;;7.00;74.60;;;;;;5006151;28;20559;-78
2022/05/25 03:26:40;;;;;;;9.13;5.85;;;7.00;75.20;;;;;;4995395;28;20048;-77
2022/05/25 03:29:07;;;;;;;8.93;6.53;;;7.00;75.80;;;;;;5012927;28;20414;-77
2022/05/25 03:31:32;;;;;;;8.90;6.17;;;7.20;75.80;;;;;;4995089;28;20483;-79
2022/05/25 03:33:58;;;;;;;9.45;6.38;;;7.30;74.60;;;;;;5012602;28;20073;-80
2022/05/25 03:36:24;;;;;;;8.27;5.65;;;7.40;74.20;;;;;;5000126;28;20033;-78
2022/05/25 03:38:50;;;;;;;7.38;5.25;;;7.40;73.70;;;;;;4993154;28;20026;-79
2022/05/25 03:41:17;;;;;;;10.35;5.95;;;7.30;73.90;;;;;;4992756;28;20207;-90
2022/05/25 03:43:44;;;;;;;12.80;5.78;;;7.40;74.10;;;;;;4994882;28;20490;-84
2022/05/25 03:46:10;;;;;;;10.23;6.13;;;7.50;74.10;;;;;;4993504;28;20070;-79
2022/05/25 03:48:36;;;;;;;8.20;5.32;;;7.60;72.90;;;;;;4996037;28;20042;-81
2022/05/25 03:51:02;;;;;;;8.93;6.07;;;7.70;72.10;;;;;;5001066;28;20026;-80
2022/05/25 03:53:28;;;;;;;9.10;6.20;;;7.70;71.90;;;;;;4998126;28;20177;-80
2022/05/25 03:55:54;;;;;;;9.75;5.60;;;7.70;71.30;;;;;;4996174;28;20034;-79
2022/05/25 03:58:20;;;;;;;8.10;5.88;;;7.70;71.50;;;;;;5003732;28;20029;-80
2022/05/25 04:00:46;;;;;;;10.90;5.43;;;7.60;71.80;;;;;;5003397;28;20041;-82
2022/05/25 04:03:15;;;;;;;6.60;5.07;;;7.70;72.00;;;;;;4985564;28;20034;-81
2022/05/25 04:05:41;;;;;;;10.07;6.15;;;7.80;71.50;;;;;;4994863;28;20058;-80
2022/05/25 04:08:07;;;;;;;7.63;4.88;;;7.90;70.80;;;;;;4992467;28;20566;-81
2022/05/25 04:10:33;;;;;;;7.85;5.25;;;8.00;70.60;;;;;;4975907;28;20496;-83
2022/05/25 04:12:59;;;;;;;7.78;4.90;;;8.00;70.80;;;;;;5006440;28;20069;-83
2022/05/25 04:15:26;;;;;;;6.63;4.60;;;8.10;70.20;;;;;;5012726;28;20022;-81
2022/05/25 04:17:53;;;;;;;7.93;4.35;;;8.10;70.40;;;;;;5013137;28;20021;-80
2022/05/25 04:20:20;;;;;;;9.68;5.20;;;8.10;70.60;;;;;;5013865;28;20062;-81
2022/05/25 04:22:46;;;;;;;7.65;4.75;;;8.10;70.40;;;;;;5017892;28;20106;-81
2022/05/25 04:25:16;;;;;;;7.78;4.38;;;8.10;70.40;;;;;;5024921;28;20134;-82
2022/05/25 04:27:43;;;;;;;8.18;5.22;;;8.20;69.70;;;;;;5027341;28;20033;-82
2022/05/25 04:30:13;;;;;;;7.20;4.30;;;8.20;69.80;;;;;;5020314;28;20021;-81
2022/05/25 04:32:39;;;;;;;5.78;4.20;;;8.30;69.20;;;;;;5016033;28;20050;-80
2022/05/25 04:35:05;;;;;;;7.15;4.40;;;8.30;68.70;;;;;;5014455;28;20455;-81
2022/05/25 04:37:49;;;;;;;12.13;7.10;;;8.40;69.10;;;;;;4997006;28;20031;-84
2022/05/25 04:40:22;;;;;;;8.80;4.80;;;8.60;69.00;;;;;;5006874;28;20097;-81
2022/05/25 04:42:49;;;;;;;8.70;4.90;;;9.00;67.90;;;;;;5016781;28;20022;-82
2022/05/25 04:45:15;;;;;;;8.25;4.55;;;9.20;66.70;;;;;;5016418;28;20018;-82
2022/05/25 04:47:42;;;;;;;5.82;4.60;;;9.60;65.70;;;;;;5016330;28;20037;-81
2022/05/25 04:50:09;;;;;;;6.82;4.97;;;9.70;63.80;;;;;;4998435;28;20476;-81
2022/05/25 04:52:35;;;;;;;;;;;9.70;63.30;;;;;;5017370;28;20491;-82
2022/05/25 04:55:02;;;;;;;5.50;4.10;;;9.60;63.70;;;;;;5018157;28;20313;-83
2022/05/25 04:57:27;;;;;;;9.68;5.97;;;9.50;63.80;;;;;;5002511;28;20022;-83
2022/05/25 04:59:58;;;;;;;8.15;4.07;;;9.60;64.30;;;;;;5019070;28;20391;-81
2022/05/25 05:02:24;;;;;;;4.70;3.40;;;10.20;62.70;;;;;;5018120;28;20022;-83
2022/05/25 05:04:50;;;;;;;6.50;3.45;;;11.40;58.40;;;;;;5025629;28;20045;-80
2022/05/25 05:07:16;;;;;;;5.63;2.80;;;12.60;55.60;;;;;;5019253;28;20069;-84
2022/05/25 05:09:44;;;;;;;7.97;4.38;;;13.70;52.90;;;;;;5016826;28;20026;-84
2022/05/25 05:12:10;;;;;;;4.85;3.00;;;14.80;49.80;;;;;;5016413;28;20022;-81
2022/05/25 05:14:42;;;;;;;4.35;3.13;;;14.60;46.20;;;;;;5023948;28;20030;-83
2022/05/25 05:17:08;;;;;;;3.47;2.38;;;13.70;47.50;;;;;;5022418;28;20089;-82
2022/05/25 05:19:34;;;;;;;5.97;2.90;;;13.00;48.10;;;;;;4998091;28;20491;-82
2022/05/25 05:22:00;;;;;;;3.80;2.70;;;12.70;49.50;;;;;;4997689;28;20034;-82
2022/05/25 05:24:27;;;;;;;5.32;3.15;;;12.50;50.50;;;;;;4997641;28;20479;-81
2022/05/25 05:26:54;;;;;;;2.63;1.63;;;12.20;51.10;;;;;;5015036;28;20033;-83
2022/05/25 05:29:20;;;;;;;4.88;1.67;;;13.10;48.80;;;;;;5015622;28;20491;-83
2022/05/25 05:31:47;;;;;;;2.83;2.00;;;13.70;48.00;;;;;;5017178;28;20033;-83
2022/05/25 05:34:13;;;;;;;3.28;1.85;;;15.00;46.20;;;;;;5013451;28;20042;-80
2022/05/25 05:36:52;;;;;;;2.88;1.50;;;15.80;43.00;;;;;;4995600;28;20098;-81
2022/05/25 05:39:20;;;;;;;2.13;1.70;;;15.40;42.80;;;;;;4997387;28;20032;-82
2022/05/25 05:41:55;;;;;;;2.85;2.13;;;14.90;42.80;;;;;;5014518;28;20339;-80
2022/05/25 05:44:26;;;;;;;2.08;1.50;;;14.10;43.90;;;;;;4997459;28;20392;-81
2022/05/25 05:46:54;;;;;;;3.00;1.85;;;13.50;44.80;;;;;;5014710;28;20065;-81
2022/05/25 05:49:20;;;;;;;2.75;2.10;;;12.90;45.60;;;;;;5014994;28;20030;-82
2022/05/25 05:51:47;;;;;;;3.53;2.03;;;12.30;46.80;;;;;;5016369;28;20026;-83
2022/05/25 05:54:25;;;;;;;4.38;2.05;;;11.70;48.00;;;;;;5019675;28;20057;-81
2022/05/25 05:56:51;;;;;;;2.97;2.33;;;11.10;49.00;;;;;;5016254;28;20507;-81
2022/05/25 05:59:17;;;;;;;6.22;2.22;;;10.80;50.00;;;;;;5001058;28;20041;-80
2022/05/25 06:01:45;;;;;;;2.08;1.73;;;10.60;50.90;;;;;;5021321;28;20034;-81
2022/05/25 06:04:11;;;;;;;2.05;1.60;;;11.30;51.50;;;;;;4999260;28;20022;-82
2022/05/25 06:06:37;;;;;;;11.10;3.78;;;13.50;49.20;;;;;;5016242;28;20094;-81
2022/05/25 06:09:03;;;;;;;9.82;4.38;;;14.70;45.30;;;;;;5001271;28;20030;-82
2022/05/25 06:11:29;;;;;;;2.88;1.83;;;15.40;45.10;;;;;;5014996;28;20018;-82
2022/05/25 06:13:54;;;;;;;3.00;1.90;;;17.50;41.50;;;;;;5014467;28;20129;-81
2022/05/25 06:21:49;;;;;;;3.65;2.13;;;18.70;36.20;;;;;;5013841;28;20071;-82
2022/05/25 06:24:15;;;;;;;5.47;2.50;;;18.50;37.00;;;;;;4997850;28;20030;-83
2022/05/25 06:26:43;;;;;;;6.03;2.33;;;17.70;37.50;;;;;;5016981;28;20089;-83
2022/05/25 06:29:08;;;;;;;3.03;2.13;;;16.80;39.00;;;;;;5000801;28;20083;-82
2022/05/25 06:31:34;;;;;;;3.65;1.98;;;18.10;38.90;;;;;;5013975;28;20033;-82
2022/05/25 06:34:00;;;;;;;5.28;2.92;;;20.30;36.00;;;;;;5000023;28;20077;-81
2022/05/25 06:36:29;;;;;;;1.75;1.27;;;21.70;34.40;;;;;;4994586;28;20055;-82
2022/05/25 06:38:56;;;;;;;3.45;2.40;;;22.90;32.10;;;;;;4995386;28;20467;-83
2022/05/25 06:41:22;;;;;;;4.25;2.78;;;24.00;31.00;;;;;;5014181;28;20361;-84
2022/05/25 06:43:48;;;;;;;3.97;1.70;;;24.00;30.10;;;;;;5014473;28;20022;-85
2022/05/25 06:46:19;;;;;;;3.50;2.47;;;24.90;29.60;;;;;;5014810;28;20041;-84
2022/05/25 06:48:45;;;;;;;7.05;3.42;;;26.30;29.10;;;;;;5013375;28;20201;-83
2022/05/25 06:51:16;;;;;;;3.22;2.00;;;26.30;28.30;;;;;;5013769;28;20028;-82
2022/05/25 06:53:42;;;;;;;3.55;2.08;;;26.30;28.60;;;;;;5013648;28;20030;-82
2022/05/25 06:56:08;;;;;;;3.15;2.30;;;26.60;27.50;;;;;;5013494;28;20033;-81
2022/05/25 06:58:34;;;;;;;4.17;2.53;;;26.90;27.60;;;;;;5013186;28;20099;-80
2022/05/25 07:01:01;;;;;;;3.67;2.42;;;27.00;27.00;;;;;;5013539;28;20037;-83
2022/05/25 07:03:27;;;;;;;4.22;2.63;;;26.70;27.40;;;;;;4995842;28;20026;-83
2022/05/25 07:05:52;;;;;;;4.05;2.65;;;27.80;27.30;;;;;;5013627;28;20037;-83
2022/05/25 07:08:19;;;;;;;3.75;2.42;;;28.60;26.60;;;;;;5012156;28;20037;-83
2022/05/25 07:10:46;;;;;;;3.45;1.88;;;29.30;26.40;;;;;;5013519;28;20567;-85
2022/05/25 07:13:13;;;;;;;2.90;2.22;;;29.50;26.00;;;;;;5013583;28;20033;-82
2022/05/25 07:15:38;;;;;;;2.05;1.67;;;29.70;25.80;;;;;;5013253;28;20098;-83
2022/05/25 07:18:04;;;;;;;2.97;2.20;;;27.60;25.80;;;;;;5012718;28;20082;-81
2022/05/25 07:20:30;;;;;;;3.08;2.30;;;24.20;27.40;;;;;;5013212;28;20026;-81
2022/05/25 07:22:56;;;;;;;3.75;1.95;;;21.60;29.50;;;;;;5013024;28;20055;-80
2022/05/25 07:25:21;;;;;;;2.78;2.08;;;19.90;31.10;;;;;;5013120;28;20101;-82
2022/05/25 07:27:47;;;;;;;2.50;1.83;;;18.70;32.80;;;;;;5012881;28;20034;-82
2022/05/25 07:30:16;;;;;;;1.73;1.25;;;17.80;33.70;;;;;;5015248;28;20102;-83
2022/05/25 07:32:42;;;;;;;4.35;2.80;;;17.20;34.40;;;;;;5002538;28;20050;-83
2022/05/25 07:35:10;;;;;;;3.30;1.85;;;16.40;36.30;;;;;;4993308;28;20097;-82
2022/05/25 07:37:39;;;;;;;3.13;2.20;;;16.60;36.00;;;;;;4994010;28;20038;-82
2022/05/25 07:40:25;;;;;;;5.45;2.63;;;16.40;35.90;;;;;;4983110;28;20463;-82
2022/05/25 07:42:56;;;;;;;6.07;2.90;;;15.70;37.00;;;;;;5025541;28;20069;-83
2022/05/25 07:45:23;;;;;;;4.13;2.47;;;15.50;38.70;;;;;;5012837;28;20038;-81
2022/05/25 07:47:51;;;;;;;5.10;2.67;;;17.70;37.60;;;;;;5012747;28;20469;-83
2022/05/25 07:50:17;;;;;;;4.72;2.65;;;20.60;33.70;;;;;;5013234;28;20022;-83
2022/05/25 07:52:43;;;;;;;3.08;2.47;;;23.10;31.10;;;;;;5012809;28;20026;-81
2022/05/25 07:55:11;;;;;;;4.70;2.17;;;25.20;28.40;;;;;;5012717;28;20026;-81
2022/05/25 07:57:38;;;;;;;3.33;2.50;;;26.10;28.00;;;;;;5012817;28;20030;-82
2022/05/25 08:00:05;;;;;;;3.10;2.28;;;27.60;27.10;;;;;;5012201;28;20080;-82
2022/05/25 08:08:12;;;;;;;8.48;2.85;;;28.50;25.20;;;;;;5013387;28;20045;-83
2022/05/25 08:10:38;;;;;;;5.57;3.40;;;28.00;25.90;;;;;;4996926;28;20445;-82
2022/05/25 08:13:17;;;;;;;3.75;2.47;;;26.60;26.30;;;;;;4997264;28;20399;-86
2022/05/25 08:15:44;;;;;;;3.25;2.47;;;25.10;27.10;;;;;;5014252;28;20029;-82
2022/05/25 08:18:11;;;;;;;4.50;2.47;;;24.30;28.10;;;;;;5013676;28;20419;-82
2022/05/25 08:20:37;;;;;;;;;;;24.20;28.00;;;;;;5013989;28;20033;-84
2022/05/25 08:23:05;;;;;;;2.92;1.60;;;23.00;28.40;;;;;;4994885;28;20312;-82
2022/05/25 08:25:31;;;;;;;4.35;2.42;;;21.40;29.40;;;;;;5012786;28;20054;-84
2022/05/25 08:27:56;;;;;;;3.60;2.20;;;19.80;30.70;;;;;;5011447;28;20131;-84
2022/05/25 08:30:22;;;;;;;4.05;2.25;;;19.40;33.00;;;;;;4995411;28;20084;-83
2022/05/25 08:32:48;;;;;;;3.15;2.60;;;21.80;31.50;;;;;;5012495;28;20077;-83
2022/05/25 08:35:14;;;;;;;4.13;2.70;;;24.80;28.70;;;;;;5012129;28;20033;-83
2022/05/25 08:37:41;;;;;;;5.20;2.17;;;26.10;27.70;;;;;;5012324;28;20459;-85
2022/05/25 08:40:08;;;;;;;4.97;2.20;;;27.80;26.80;;;;;;4995465;28;20380;-85
2022/05/25 08:42:36;;;;;;;;;;;27.70;26.30;;;;;;5013318;28;20030;-83
2022/05/25 08:45:02;;;;;;;5.38;2.35;;;27.80;27.50;;;;;;5014055;28;20060;-83
2022/05/25 08:47:28;;;;;;;5.18;2.47;;;27.00;26.60;;;;;;5018588;28;20092;-81
2022/05/25 08:49:55;;;;;;;6.20;2.70;;;25.00;27.20;;;;;;5017607;28;20491;-81
2022/05/25 08:52:35;;;;;;;4.38;2.22;;;23.10;28.70;;;;;;5017422;28;20081;-83
2022/05/25 08:55:04;;;;;;;3.17;2.10;;;21.20;30.10;;;;;;5022693;28;20463;-83
2022/05/25 08:57:48;;;;;;;4.25;2.60;;;22.00;31.00;;;;;;5015422;28;20029;-82
2022/05/25 09:00:17;;;;;;;3.83;2.00;;;25.00;29.30;;;;;;5012800;28;20032;-83
2022/05/25 09:03:01;;;;;;;4.78;2.53;;;27.40;27.60;;;;;;5013652;28;20026;-81
2022/05/25 09:05:37;;;;;;;4.68;2.10;;;29.20;26.70;;;;;;5013638;28;20029;-82
2022/05/25 09:08:22;;;;;;;4.68;2.03;;;30.00;25.50;;;;;;5012702;28;20034;-82
2022/05/25 09:10:55;;;;;;;3.40;1.73;;;30.50;25.20;;;;;;4995557;28;20035;-82
2022/05/25 09:13:52;;;;;;;4.55;2.40;;;30.50;24.80;;;;;;5021815;28;20034;-82
2022/05/25 09:16:20;;;;;;;5.40;2.22;;;30.00;25.20;;;;;;5016913;28;20061;-84
2022/05/25 09:19:00;;;;;;;5.05;2.10;;;30.50;24.70;;;;;;5016417;28;20045;-84
2022/05/25 09:21:31;;;;;;;6.68;1.95;;;30.20;24.90;;;;;;5015892;28;20058;-83
2022/05/25 09:24:00;;;;;;;4.40;1.88;;;31.60;24.80;;;;;;4997720;28;20080;-82
2022/05/25 09:26:26;;;;;;;5.00;2.13;;;31.50;24.30;;;;;;5015174;28;20368;-83
2022/05/25 09:28:58;;;;;;;3.78;1.88;;;31.00;24.60;;;;;;4998531;28;20050;-83
2022/05/25 09:31:32;;;;;;;4.40;1.85;;;30.10;24.50;;;;;;4999761;28;20030;-81
2022/05/25 09:34:03;;;;;;;13.18;3.17;;;28.50;24.90;;;;;;4995049;28;20057;-81
2022/05/25 09:36:44;;;;;;;4.60;2.35;;;27.30;25.90;;;;;;4995905;28;20686;-82
2022/05/25 09:39:18;;;;;;;5.35;2.70;;;25.60;26.80;;;;;;4996409;28;20022;-83
2022/05/25 09:41:45;;;;;;;4.25;2.03;;;24.60;27.70;;;;;;4997426;28;20061;-83
2022/05/25 09:44:19;;;;;;;4.50;2.80;;;24.60;27.20;;;;;;5014967;28;20033;-83
2022/05/25 09:46:51;;;;;;;2.65;2.17;;;23.00;27.60;;;;;;5014872;28;20188;-81
2022/05/25 09:49:48;;;;;;;3.90;2.55;;;21.70;29.10;;;;;;5014742;28;20081;-84
2022/05/25 09:52:13;;;;;;;;;;;22.60;29.50;;;;;;5010652;28;20038;-84
2022/05/25 09:55:23;;;;;;;3.73;1.97;;;24.60;28.70;;;;;;5015334;28;19909;-83
2022/05/25 09:57:59;;;;;;;4.28;2.20;;;26.70;27.10;;;;;;4997555;28;20038;-83
2022/05/25 10:00:43;;;;;;;5.50;2.45;;;27.80;26.20;;;;;;5015253;28;20411;-84
2022/05/25 10:03:39;;;;;;;3.63;1.90;;;28.40;25.80;;;;;;5018786;28;20033;-82
2022/05/25 10:06:43;;;;;;;1.90;1.53;;;27.70;25.90;;;;;;5016011;28;20121;-83
2022/05/25 10:09:23;;;;;;;2.78;1.95;;;25.40;26.00;;;;;;5019164;28;20076;-84
2022/05/25 10:11:50;;;;;;;5.15;2.80;;;23.10;27.80;;;;;;5014917;28;20033;-81
2022/05/25 10:14:32;;;;;;;5.78;2.65;;;21.50;29.10;;;;;;5015846;28;20475;-83
2022/05/25 10:17:08;;;;;;;3.72;2.42;;;20.40;30.20;;;;;;5015285;28;20057;-82
2022/05/25 10:19:44;;;;;;;4.75;2.60;;;19.80;31.30;;;;;;5018486;28;20045;-83
2022/05/25 10:22:36;;;;;;;4.85;2.05;;;19.80;31.90;;;;;;5019045;28;20120;-81
2022/05/25 10:25:28;;;;;;;4.07;2.00;;;21.70;30.00;;;;;;5015594;28;20423;-82
2022/05/25 10:27:55;;;;;;;3.58;2.10;;;21.80;29.00;;;;;;5010213;28;20077;-81
2022/05/25 10:39:37;;;;;;;5.75;2.45;;;17.60;33.90;;;;;;4994493;28;20070;-83
2022/05/25 10:42:19;;;;;;;6.43;2.08;;;17.00;34.80;;;;;;4976968;28;20027;-82
2022/05/25 10:45:21;;;;;;;5.00;2.70;;;16.60;35.90;;;;;;4994426;28;20026;-80
2022/05/25 10:47:52;;;;;;;7.47;4.47;;;16.30;36.40;;;;;;4996905;28;20066;-83
2022/05/25 10:50:21;;;;;;;3.50;1.88;;;16.00;37.10;;;;;;4995016;28;20022;-82
2022/05/25 10:53:07;;;;;;;6.43;2.30;;;15.80;36.60;;;;;;4976768;28;20034;-84
2022/05/25 10:55:54;;;;;;;6.78;2.53;;;15.60;37.10;;;;;;4994378;28;20018;-82
2022/05/25 10:58:20;;;;;;;5.40;3.28;;;15.60;37.20;;;;;;4994289;28;20514;-81
2022/05/25 11:01:26;;;;;;;5.07;3.10;;;15.70;37.60;;;;;;4976532;28;20129;-82
2022/05/25 11:04:25;;;;;;;11.35;4.07;;;15.80;37.80;;;;;;4994022;28;20034;-81
2022/05/25 11:07:05;;;;;;;5.22;2.30;;;15.70;37.70;;;;;;4908290;28;20406;-82
2022/05/25 11:10:08;;;;;;;4.75;3.13;;;15.60;37.40;;;;;;4993783;28;20030;-84
2022/05/25 11:12:59;;;;;;;3.88;2.42;;;15.40;38.00;;;;;;4976145;28;20018;-82
2022/05/25 11:15:32;;;;;;;5.97;2.47;;;15.30;38.20;;;;;;4994219;28;20026;-83
2022/05/25 11:18:43;;;;;;;3.67;2.90;;;15.00;38.80;;;;;;4994602;28;20027;-84
2022/05/25 11:21:36;;;;;;;5.30;2.45;;;14.80;38.80;;;;;;4991129;28;20117;-82
2022/05/25 11:24:23;;;;;;;6.88;3.00;;;14.70;38.70;;;;;;4979370;28;20081;-82
2022/05/25 11:27:04;;;;;;;7.57;3.47;;;14.70;39.10;;;;;;4994347;28;20030;-81
2022/05/25 11:30:05;;;;;;;5.28;2.20;;;14.70;39.10;;;;;;5013957;28;20041;-82
2022/05/25 11:32:39;;;;;;;6.38;2.95;;;14.70;39.00;;;;;;5014605;28;20068;-80
2022/05/25 11:35:27;;;;;;;3.50;2.10;;;14.70;39.20;;;;;;5013994;28;20033;-82
2022/05/25 11:38:11;;;;;;;2.97;1.88;;;14.70;39.10;;;;;;5013303;28;20026;-83
2022/05/25 11:41:23;;;;;;;3.25;2.10;;;14.60;39.70;;;;;;5013130;28;20029;-80
2022/05/25 11:44:13;;;;;;;3.67;2.40;;;14.60;39.90;;;;;;5013609;28;20030;-82
2022/05/25 11:46:47;;;;;;;5.03;2.17;;;14.60;39.90;;;;;;4995787;28;20084;-82
2022/05/25 11:49:31;;;;;;;3.08;2.08;;;14.70;40.00;;;;;;5014623;28;20411;-82
2022/05/25 11:52:02;;;;;;;4.35;2.88;;;14.80;39.60;;;;;;4996327;28;20021;-81
2022/05/25 11:54:52;;;;;;;5.15;2.35;;;15.00;39.80;;;;;;5014132;28;20391;-81
2022/05/25 11:57:39;;;;;;;5.32;2.53;;;15.20;39.50;;;;;;5013693;28;20076;-82
2022/05/25 12:00:26;;;;;;;5.18;2.72;;;15.40;39.70;;;;;;5017578;28;20026;-82
2022/05/25 12:03:19;;;;;;;5.25;2.38;;;15.40;38.70;;;;;;5019534;28;20092;-82
2022/05/25 12:06:20;;;;;;;8.65;2.53;;;15.30;39.00;;;;;;5014599;28;20030;-82
2022/05/25 12:09:19;;;;;;;4.85;2.15;;;15.30;39.40;;;;;;4993567;28;20042;-81
2022/05/25 12:12:09;;;;;;;3.60;2.38;;;15.50;39.10;;;;;;4994862;28;20144;-82
2022/05/25 12:14:57;;;;;;;4.40;2.10;;;15.50;38.70;;;;;;5012915;28;20554;-83
2022/05/25 12:17:44;;;;;;;5.55;2.45;;;15.30;39.00;;;;;;5013098;28;20049;-82
2022/05/25 12:20:13;;;;;;;3.83;2.28;;;15.30;38.70;;;;;;5013199;28;20026;-81
2022/05/25 12:22:48;;;;;;;5.85;2.90;;;15.20;38.70;;;;;;5012992;28;20551;-80
2022/05/25 12:25:16;;;;;;;2.50;1.90;;;15.30;39.30;;;;;;4994998;28;20546;-83
2022/05/25 12:27:47;;;;;;;;;;;15.50;39.10;;;;;;4995245;28;20045;-81
2022/05/25 12:30:26;;;;;;;3.17;1.98;;;15.50;38.90;;;;;;5013924;28;19952;-84
2022/05/25 12:32:52;;;;;;;4.38;2.42;;;15.50;39.10;;;;;;5019671;28;20149;-80
2022/05/25 12:35:18;;;;;;;3.67;2.70;;;15.60;39.30;;;;;;5019124;28;20053;-83
2022/05/25 12:37:47;;;;;;;3.80;2.28;;;15.80;38.80;;;;;;5017355;28;20097;-82
2022/05/25 12:40:34;;;;;;;5.07;2.53;;;15.90;38.80;;;;;;5017263;28;20022;-81
2022/05/25 12:43:00;;;;;;;4.40;2.30;;;16.00;38.50;;;;;;5009197;28;20034;-82
2022/05/25 12:48:36;;;;;;;5.80;3.22;;;15.70;39.70;;;;;;5017112;28;20120;-84
2022/05/25 12:51:25;;;;;;;5.05;2.42;;;15.60;39.30;;;;;;4999162;28;20064;-81
2022/05/25 12:53:52;;;;;;;4.15;2.30;;;15.70;39.10;;;;;;5013411;28;20103;-83
2022/05/25 12:56:18;;;;;;;8.18;3.22;;;15.90;38.80;;;;;;5017414;28;20018;-81
2022/05/25 12:58:55;;;;;;;5.10;3.17;;;16.00;40.00;;;;;;5017320;28;20109;-82
2022/05/25 13:01:27;;;;;;;;;;;16.10;38.80;;;;;;4998864;28;20029;-85
2022/05/25 13:03:56;;;;;;;7.07;3.40;;;16.10;38.70;;;;;;5016033;28;19905;-81
2022/05/25 13:06:35;;;;;;;3.85;2.65;;;15.90;39.10;;;;;;5016003;28;20026;-82
2022/05/25 13:09:05;;;;;;;6.97;2.72;;;16.00;39.20;;;;;;4998045;28;20454;-82
2022/05/25 13:11:46;;;;;;;4.05;2.38;;;16.00;38.80;;;;;;5015769;28;20045;-82
2022/05/25 13:14:18;;;;;;;3.83;2.45;;;15.90;38.60;;;;;;5015888;28;20104;-83
2022/05/25 13:16:48;;;;;;;3.85;2.47;;;15.80;38.40;;;;;;4998312;28;20018;-83
2022/05/25 13:19:31;;;;;;;6.43;3.15;;;15.70;38.90;;;;;;4998490;28;20065;-82
2022/05/25 13:22:02;;;;;;;6.00;4.00;;;15.90;39.00;;;;;;4998773;28;20121;-83
2022/05/25 13:24:50;;;;;;;3.05;2.33;;;16.20;38.60;;;;;;4997994;28;20048;-84
2022/05/25 13:27:16;;;;;;;3.05;2.15;;;16.50;38.00;;;;;;4995947;28;20119;-82
2022/05/25 13:30:07;;;;;;;4.78;2.20;;;16.50;37.40;;;;;;4996632;28;20018;-83
2022/05/25 13:32:55;;;;;;;5.38;2.75;;;16.60;37.30;;;;;;4996142;28;20026;-83
2022/05/25 13:35:20;;;;;;;7.38;3.03;;;16.70;37.80;;;;;;4995859;28;20060;-82
2022/05/25 13:38:00;;;;;;;7.35;3.63;;;16.80;37.40;;;;;;4996292;28;20031;-82
2022/05/25 13:40:31;;;;;;;4.80;2.33;;;16.60;37.10;;;;;;5018721;28;20029;-85
2022/05/25 13:42:58;;;;;;;5.68;2.75;;;16.60;37.20;;;;;;5036544;28;20026;-82
2022/05/25 13:45:27;;;;;;;3.67;1.92;;;16.50;37.30;;;;;;5038875;28;20025;-83
2022/05/25 13:47:59;;;;;;;5.82;3.17;;;16.80;37.80;;;;;;5052881;28;20040;-84